Time;durP1;ratioP1;P1;durP2;ratioP2;P2;SDS_P1;SDS_P2;PMS_P1;PMS_P2;Temp;Humidity;BMP_temperature;BMP_pressure;BME280_temperature;BME280_humidity;BME280_pressure;Samples;Min_cycle;Max_cycle;Signal;HPM_P1;HPM_P2
2023/02/17 00:02:09;;;;;;;82.07;28.65;;;;;;;;;;6174522;23;20642;-71
2023/02/17 00:04:42;;;;;;;79.22;29.15;;;;;;;;;;6175594;23;20021;-72
2023/02/17 00:07:10;;;;;;;76.07;30.35;;;;;;;;;;6174507;23;20083;-71
2023/02/17 00:09:37;;;;;;;73.60;28.15;;;;;;;;;;6175398;23;20021;-71
2023/02/17 00:12:10;;;;;;;71.38;28.45;;;;;;;;;;6175854;23;20104;-71
2023/02/17 00:14:40;;;;;;;86.15;29.70;;;;;;;;;;6174261;23;20020;-62
2023/02/17 00:17:14;;;;;;;72.90;27.77;;;;;;;;;;6174539;23;20330;-62
2023/02/17 00:19:41;;;;;;;78.97;28.83;;;;;;;;;;6173742;23;20067;-62
2023/02/17 00:22:09;;;;;;;70.07;28.48;;;;;;;;;;6174741;23;20029;-61
2023/02/17 00:24:42;;;;;;;78.68;31.23;;;;;;;;;;6177039;23;20028;-61
2023/02/17 00:27:10;;;;;;;78.65;30.30;;;;;;;;;;6176961;23;20107;-61
2023/02/17 00:29:37;;;;;;;83.57;31.50;;;;;;;;;;6176005;23;20467;-61
2023/02/17 00:32:11;;;;;;;77.97;30.73;;;;;;;;;;6176606;23;20147;-61
2023/02/17 00:34:39;;;;;;;;;;;;;;;;;;6178248;23;20021;-61
2023/02/17 00:37:12;;;;;;;79.60;32.03;;;;;;;;;;6176471;23;19924;-61
2023/02/17 00:39:39;;;;;;;78.40;29.63;;;;;;;;;;6175963;23;20017;-61
2023/02/17 00:42:07;;;;;;;72.00;30.50;;;;;;;;;;6176230;23;20459;-61
2023/02/17 00:44:40;;;;;;;86.00;33.33;;;;;;;;;;6176780;23;20031;-62
2023/02/17 00:47:07;;;;;;;80.28;32.33;;;;;;;;;;6175991;23;20492;-62
2023/02/17 00:49:41;;;;;;;78.70;32.33;;;;;;;;;;6176160;23;20036;-62
2023/02/17 00:52:08;;;;;;;84.18;34.15;;;;;;;;;;6176279;23;20029;-62
2023/02/17 00:54:36;;;;;;;98.60;34.03;;;;;;;;;;6175443;23;20503;-72
2023/02/17 00:57:09;;;;;;;80.05;33.25;;;;;;;;;;6176404;23;20079;-59
2023/02/17 00:59:36;;;;;;;86.63;33.90;;;;;;;;;;6176658;23;20048;-60
2023/02/17 01:02:10;;;;;;;84.85;33.75;;;;;;;;;;6174641;23;20112;-61
2023/02/17 01:04:37;;;;;;;77.35;33.72;;;;;;;;;;6177663;23;20035;-60
2023/02/17 01:07:05;;;;;;;79.85;33.60;;;;;;;;;;6174778;23;20029;-60
2023/02/17 01:09:38;;;;;;;80.18;31.80;;;;;;;;;;6175867;23;20204;-60
2023/02/17 01:12:05;;;;;;;81.28;33.22;;;;;;;;;;6176430;23;20048;-57
2023/02/17 01:14:40;;;;;;;83.05;34.17;;;;;;;;;;6174702;23;20600;-52
2023/02/17 01:17:07;;;;;;;89.80;34.65;;;;;;;;;;6174612;23;20108;-52
2023/02/17 01:19:34;;;;;;;86.80;34.53;;;;;;;;;;6174821;23;20583;-53
2023/02/17 01:22:15;;;;;;;90.32;36.45;;;;;;;;;;6174769;23;20031;-77
2023/02/17 01:24:49;;;;;;;92.75;35.75;;;;;;;;;;6175195;23;20083;-61
2023/02/17 01:27:23;;;;;;;87.00;36.65;;;;;;;;;;6175963;23;20021;-60
2023/02/17 01:29:51;;;;;;;105.07;37.10;;;;;;;;;;6175835;23;20024;-60
2023/02/17 01:32:18;;;;;;;109.85;40.22;;;;;;;;;;6175394;23;20021;-60
2023/02/17 01:34:51;;;;;;;105.72;36.67;;;;;;;;;;6176277;23;20059;-60
2023/02/17 01:37:19;;;;;;;105.88;38.17;;;;;;;;;;6176299;23;20029;-60
2023/02/17 01:39:55;;;;;;;93.90;36.42;;;;;;;;;;6176685;23;20024;-62
2023/02/17 01:42:22;;;;;;;111.53;39.60;;;;;;;;;;6173198;23;20112;-61
2023/02/17 01:45:15;;;;;;;110.55;41.58;;;;;;;;;;6175517;23;20435;-61
2023/02/17 01:47:42;;;;;;;100.30;38.22;;;;;;;;;;6174645;23;20116;-62
2023/02/17 01:50:18;;;;;;;104.25;37.95;;;;;;;;;;6173935;23;20025;-63
2023/02/17 01:52:45;;;;;;;107.18;40.22;;;;;;;;;;6175836;23;20115;-64
2023/02/17 01:55:15;;;;;;;104.47;39.28;;;;;;;;;;6176743;23;20054;-78
2023/02/17 01:57:49;;;;;;;111.82;40.10;;;;;;;;;;6173251;23;20025;-79
2023/02/17 02:00:16;;;;;;;108.53;38.60;;;;;;;;;;6175216;23;20025;-79
2023/02/17 02:02:50;;;;;;;101.85;36.65;;;;;;;;;;6175476;23;20104;-78
2023/02/17 02:05:18;;;;;;;98.22;38.00;;;;;;;;;;6175468;23;20460;-78
2023/02/17 02:07:46;;;;;;;104.65;40.13;;;;;;;;;;6175062;23;20366;-74
2023/02/17 02:10:20;;;;;;;94.20;38.83;;;;;;;;;;6175552;23;20068;-60
2023/02/17 02:12:47;;;;;;;97.25;39.28;;;;;;;;;;6175232;23;20380;-59
2023/02/17 02:15:22;;;;;;;93.43;36.65;;;;;;;;;;6174600;23;20035;-60
2023/02/17 02:17:49;;;;;;;91.40;36.40;;;;;;;;;;6174792;23;20025;-60
2023/02/17 02:20:29;;;;;;;92.05;37.20;;;;;;;;;;6149805;23;20103;-77
2023/02/17 02:23:16;;;;;;;93.82;36.67;;;;;;;;;;6146129;23;20017;-61
2023/02/17 02:25:43;;;;;;;99.20;37.92;;;;;;;;;;6146178;23;20116;-61
2023/02/17 02:28:20;;;;;;;98.70;39.47;;;;;;;;;;6144885;23;20017;-61
2023/02/17 02:31:00;;;;;;;97.60;38.50;;;;;;;;;;6144772;23;20021;-61
2023/02/17 02:33:37;;;;;;;100.18;39.47;;;;;;;;;;6144346;23;20018;-61
2023/02/17 02:36:10;;;;;;;100.75;39.70;;;;;;;;;;6143911;23;20029;-61
2023/02/17 02:38:57;;;;;;;94.05;38.50;;;;;;;;;;6145926;23;20040;-61
2023/02/17 02:41:26;;;;;;;97.13;38.83;;;;;;;;;;6145758;23;20022;-60
2023/02/17 02:44:02;;;;;;;106.05;39.67;;;;;;;;;;6146528;23;20104;-61
2023/02/17 02:46:29;;;;;;;98.18;36.95;;;;;;;;;;6142094;23;20033;-61
2023/02/17 02:48:56;;;;;;;101.72;38.58;;;;;;;;;;6144194;23;20108;-62
2023/02/17 02:51:40;;;;;;;98.43;37.30;;;;;;;;;;6146028;23;20025;-62
2023/02/17 02:54:16;;;;;;;97.32;38.97;;;;;;;;;;6146269;23;20028;-62
2023/02/17 02:56:44;;;;;;;102.32;39.15;;;;;;;;;;6144552;23;20104;-62
2023/02/17 02:59:17;;;;;;;115.00;41.10;;;;;;;;;;6144529;23;20477;-62
2023/02/17 03:01:50;;;;;;;125.90;41.75;;;;;;;;;;6145205;23;20615;-62
2023/02/17 03:04:30;;;;;;;111.05;40.90;;;;;;;;;;6144458;23;20488;-62
2023/02/17 03:07:10;;;;;;;117.13;40.60;;;;;;;;;;6146634;23;20112;-61
2023/02/17 03:09:43;;;;;;;120.18;41.50;;;;;;;;;;6144377;23;20499;-62
2023/02/17 03:12:18;;;;;;;125.93;42.22;;;;;;;;;;6145420;23;20052;-61
2023/02/17 03:14:45;;;;;;;;;;;;;;;;;;6144858;23;20486;-62
2023/02/17 03:17:18;;;;;;;113.90;40.15;;;;;;;;;;6145752;23;19923;-63
2023/02/17 03:19:46;;;;;;;122.47;41.95;;;;;;;;;;6145838;23;20120;-64
2023/02/17 03:22:19;;;;;;;110.20;40.22;;;;;;;;;;6165919;23;20053;-65
2023/02/17 03:25:00;;;;;;;139.55;42.92;;;;;;;;;;6174495;23;20025;-64
2023/02/17 03:27:27;;;;;;;128.10;41.78;;;;;;;;;;6173783;23;20096;-64
2023/02/17 03:30:01;;;;;;;119.80;40.65;;;;;;;;;;6175210;23;20021;-64
2023/02/17 03:32:29;;;;;;;135.52;45.45;;;;;;;;;;6173938;23;20087;-64
2023/02/17 03:34:56;;;;;;;125.03;40.67;;;;;;;;;;6175303;23;20021;-60
2023/02/17 03:37:30;;;;;;;133.77;41.33;;;;;;;;;;6174224;23;20032;-60
2023/02/17 03:39:57;;;;;;;104.18;32.55;;;;;;;;;;6175165;23;20551;-60
2023/02/17 03:42:24;;;;;;;124.97;41.42;;;;;;;;;;6173481;23;20525;-59
2023/02/17 03:44:57;;;;;;;121.95;38.38;;;;;;;;;;6174750;23;20021;-61
2023/02/17 03:47:24;;;;;;;128.23;41.95;;;;;;;;;;6173758;23;20032;-64
2023/02/17 03:49:58;;;;;;;115.00;39.92;;;;;;;;;;6174426;23;20025;-64
2023/02/17 03:52:25;;;;;;;121.70;39.40;;;;;;;;;;6172693;23;20669;-64
2023/02/17 03:54:52;;;;;;;118.65;37.33;;;;;;;;;;6175067;23;20109;-64
2023/02/17 03:57:26;;;;;;;100.50;36.88;;;;;;;;;;6174145;23;20025;-64
2023/02/17 03:59:53;;;;;;;104.47;36.70;;;;;;;;;;6174175;23;20017;-64
2023/02/17 04:02:20;;;;;;;119.40;37.35;;;;;;;;;;6175024;23;20027;-62
2023/02/17 04:04:54;;;;;;;105.55;37.33;;;;;;;;;;6173919;23;20021;-61
2023/02/17 04:07:21;;;;;;;98.80;37.35;;;;;;;;;;6173154;23;20452;-62
2023/02/17 04:09:55;;;;;;;122.07;39.15;;;;;;;;;;6174700;23;20523;-62
2023/02/17 04:12:23;;;;;;;112.43;38.33;;;;;;;;;;6147847;23;20029;-62
2023/02/17 04:14:50;;;;;;;109.65;37.17;;;;;;;;;;6173791;23;20037;-61
2023/02/17 04:17:23;;;;;;;117.35;37.85;;;;;;;;;;6174043;23;20027;-60
2023/02/17 04:19:50;;;;;;;103.07;35.45;;;;;;;;;;6174448;23;20047;-60
2023/02/17 04:22:31;;;;;;;90.50;33.63;;;;;;;;;;6171684;23;20449;-60
2023/02/17 04:24:58;;;;;;;115.05;34.90;;;;;;;;;;6174811;23;20388;-60
2023/02/17 04:27:32;;;;;;;101.07;34.80;;;;;;;;;;6174417;23;20452;-60
2023/02/17 04:29:59;;;;;;;94.82;33.95;;;;;;;;;;6174471;23;20480;-60
2023/02/17 04:32:27;;;;;;;84.25;32.78;;;;;;;;;;6174656;23;20033;-59
2023/02/17 04:35:00;;;;;;;90.47;32.70;;;;;;;;;;6175481;23;20036;-59
2023/02/17 04:37:28;;;;;;;87.88;29.58;;;;;;;;;;6173509;23;20572;-59
2023/02/17 04:39:55;;;;;;;78.15;30.25;;;;;;;;;;6174363;23;20484;-59
2023/02/17 04:42:28;;;;;;;77.20;29.52;;;;;;;;;;6173942;23;20021;-60
2023/02/17 04:44:55;;;;;;;88.25;30.63;;;;;;;;;;6174738;23;20060;-69
2023/02/17 04:47:29;;;;;;;82.47;29.85;;;;;;;;;;6172936;23;20021;-70
2023/02/17 04:49:57;;;;;;;77.28;28.55;;;;;;;;;;6175454;23;20025;-70
2023/02/17 04:52:24;;;;;;;82.05;29.27;;;;;;;;;;6174069;23;20017;-70
2023/02/17 04:54:57;;;;;;;75.65;28.05;;;;;;;;;;6149792;23;20108;-70
2023/02/17 04:57:31;;;;;;;69.38;26.80;;;;;;;;;;6173392;23;20096;-70
2023/02/17 05:00:06;;;;;;;61.60;24.83;;;;;;;;;;6173577;23;20552;-59
2023/02/17 05:02:33;;;;;;;59.65;23.40;;;;;;;;;;6174246;23;20104;-59
2023/02/17 05:05:00;;;;;;;59.35;23.98;;;;;;;;;;6174880;23;20556;-58
2023/02/17 05:07:34;;;;;;;56.45;21.90;;;;;;;;;;6174530;23;20047;-59
2023/02/17 05:10:02;;;;;;;54.05;20.63;;;;;;;;;;6176541;23;20100;-52
2023/02/17 05:12:29;;;;;;;60.30;21.05;;;;;;;;;;6176977;23;20092;-63
2023/02/17 05:15:02;;;;;;;50.03;18.50;;;;;;;;;;6175683;23;20021;-63
2023/02/17 05:17:30;;;;;;;42.97;18.98;;;;;;;;;;6149388;23;20515;-63
2023/02/17 05:20:04;;;;;;;42.22;17.65;;;;;;;;;;6176302;23;20024;-63
2023/02/17 05:22:38;;;;;;;44.25;16.08;;;;;;;;;;6174081;23;20104;-63
2023/02/17 05:25:13;;;;;;;37.85;15.73;;;;;;;;;;6175246;23;20104;-62
2023/02/17 05:27:40;;;;;;;34.35;14.63;;;;;;;;;;6174818;23;20373;-88
2023/02/17 05:30:07;;;;;;;39.20;16.40;;;;;;;;;;6180967;23;20021;-86
2023/02/17 05:32:40;;;;;;;41.47;16.13;;;;;;;;;;6179655;23;20060;-87
2023/02/17 05:35:08;;;;;;;35.13;14.43;;;;;;;;;;6178910;23;20444;-89
2023/02/17 05:37:35;;;;;;;43.90;16.42;;;;;;;;;;6179260;23;20080;-88
2023/02/17 05:40:11;;;;;;;34.72;14.45;;;;;;;;;;6175948;23;20104;-61
2023/02/17 05:42:38;;;;;;;34.13;14.52;;;;;;;;;;6174241;23;20027;-59
2023/02/17 05:45:12;;;;;;;34.70;14.57;;;;;;;;;;6175735;23;20112;-59
2023/02/17 05:47:39;;;;;;;30.85;12.55;;;;;;;;;;6174533;23;20021;-60
2023/02/17 05:50:07;;;;;;;35.22;13.43;;;;;;;;;;6175883;23;20669;-60
2023/02/17 05:52:40;;;;;;;31.73;12.32;;;;;;;;;;6175292;23;20025;-59
2023/02/17 05:55:08;;;;;;;26.83;13.15;;;;;;;;;;6176882;23;20100;-59
2023/02/17 05:57:41;;;;;;;26.13;11.63;;;;;;;;;;6175178;23;20025;-51
2023/02/17 06:00:09;;;;;;;21.77;10.82;;;;;;;;;;6175812;23;20021;-52
2023/02/17 06:02:36;;;;;;;22.52;10.65;;;;;;;;;;6176333;23;20039;-51
2023/02/17 06:05:10;;;;;;;24.90;12.05;;;;;;;;;;6174908;23;20028;-50
2023/02/17 06:07:37;;;;;;;;;;;;;;;;;;6175126;23;20025;-61
2023/02/17 06:10:10;;;;;;;19.35;9.55;;;;;;;;;;6174305;23;19920;-58
2023/02/17 06:12:38;;;;;;;17.10;9.10;;;;;;;;;;6175648;23;20590;-58
2023/02/17 06:15:05;;;;;;;15.77;8.32;;;;;;;;;;6175499;23;20024;-58
2023/02/17 06:17:39;;;;;;;19.83;9.13;;;;;;;;;;6174413;23;20440;-59
2023/02/17 06:20:07;;;;;;;15.00;7.38;;;;;;;;;;6175426;23;20336;-58
2023/02/17 06:22:48;;;;;;;14.23;7.28;;;;;;;;;;6174305;23;20059;-58
2023/02/17 06:25:22;;;;;;;12.38;7.10;;;;;;;;;;6175379;23;20025;-59
2023/02/17 06:27:56;;;;;;;12.73;7.25;;;;;;;;;;6176181;23;20021;-59
2023/02/17 06:30:23;;;;;;;11.50;6.80;;;;;;;;;;6174081;23;20103;-59
2023/02/17 06:32:50;;;;;;;14.30;7.30;;;;;;;;;;6172895;23;20053;-59
2023/02/17 06:35:24;;;;;;;12.38;7.45;;;;;;;;;;6175932;23;20021;-54
2023/02/17 06:37:58;;;;;;;11.55;7.18;;;;;;;;;;6174298;23;20431;-62
2023/02/17 06:40:26;;;;;;;10.32;6.20;;;;;;;;;;6174187;23;20514;-62
2023/02/17 06:42:54;;;;;;;11.27;6.32;;;;;;;;;;6175331;23;20021;-62
2023/02/17 06:45:28;;;;;;;14.00;7.15;;;;;;;;;;6174237;23;20021;-62
2023/02/17 06:47:55;;;;;;;13.65;6.75;;;;;;;;;;6173476;23;20017;-62
2023/02/17 06:50:29;;;;;;;12.20;7.18;;;;;;;;;;6174887;23;20480;-63
2023/02/17 06:52:57;;;;;;;11.77;6.28;;;;;;;;;;6174701;23;20112;-70
2023/02/17 06:55:24;;;;;;;10.63;6.03;;;;;;;;;;6175699;23;20079;-70
2023/02/17 06:57:57;;;;;;;11.35;6.30;;;;;;;;;;6174976;23;20092;-70
2023/02/17 07:00:25;;;;;;;8.77;5.65;;;;;;;;;;6173345;23;20029;-70
2023/02/17 07:02:59;;;;;;;12.93;6.55;;;;;;;;;;6173139;23;20028;-70
2023/02/17 07:05:27;;;;;;;8.73;4.97;;;;;;;;;;6176574;23;20025;-63
2023/02/17 07:07:57;;;;;;;8.75;5.88;;;;;;;;;;6175232;23;20421;-80
2023/02/17 07:10:31;;;;;;;8.93;5.82;;;;;;;;;;6174707;23;20025;-80
2023/02/17 07:12:58;;;;;;;;;;;;;;;;;;6175728;23;20395;-80
2023/02/17 07:15:31;;;;;;;10.75;5.55;;;;;;;;;;6173486;23;19982;-80
2023/02/17 07:18:00;;;;;;;6.93;4.80;;;;;;;;;;6174186;23;20558;-80
2023/02/17 07:20:27;;;;;;;8.25;5.07;;;;;;;;;;6175273;23;20017;-78
2023/02/17 07:23:11;;;;;;;7.53;5.03;;;;;;;;;;6170839;23;20056;-61
2023/02/17 07:25:38;;;;;;;9.20;5.28;;;;;;;;;;6174395;23;20104;-61
2023/02/17 07:28:12;;;;;;;6.38;4.50;;;;;;;;;;6173846;23;20025;-61
2023/02/17 07:30:40;;;;;;;7.47;5.28;;;;;;;;;;6173664;23;20053;-61
2023/02/17 07:33:14;;;;;;;7.22;4.72;;;;;;;;;;6173442;23;20064;-59
2023/02/17 07:35:45;;;;;;;8.60;4.70;;;;;;;;;;6174348;23;20472;-60
2023/02/17 07:38:12;;;;;;;5.65;3.88;;;;;;;;;;6172784;23;20491;-59
2023/02/17 07:40:46;;;;;;;5.47;4.07;;;;;;;;;;6172877;23;20029;-59
2023/02/17 07:43:13;;;;;;;5.30;3.83;;;;;;;;;;6172611;23;20024;-60
2023/02/17 07:45:47;;;;;;;4.80;3.50;;;;;;;;;;6173410;23;20100;-59
2023/02/17 07:48:15;;;;;;;4.88;3.53;;;;;;;;;;6174740;23;20087;-59
2023/02/17 07:50:42;;;;;;;5.13;3.40;;;;;;;;;;6176313;23;20021;-61
2023/02/17 07:53:15;;;;;;;4.90;3.50;;;;;;;;;;6173615;23;20017;-61
2023/02/17 07:55:42;;;;;;;4.35;3.15;;;;;;;;;;6174410;23;20112;-60
2023/02/17 07:58:16;;;;;;;4.63;2.70;;;;;;;;;;6175272;23;20096;-61
2023/02/17 08:00:43;;;;;;;4.13;3.22;;;;;;;;;;6174293;23;20017;-63
2023/02/17 08:03:11;;;;;;;3.97;2.72;;;;;;;;;;6173872;23;20462;-63
2023/02/17 08:05:44;;;;;;;4.28;2.95;;;;;;;;;;6175764;23;20088;-62
2023/02/17 08:13:55;;;;;;;3.05;2.33;;;;;;;;;;6175021;23;20574;-62
2023/02/17 08:16:29;;;;;;;3.33;2.10;;;;;;;;;;6174547;23;20024;-62
2023/02/17 08:18:56;;;;;;;3.65;2.40;;;;;;;;;;6175454;23;20055;-56
2023/02/17 08:21:24;;;;;;;2.80;2.30;;;;;;;;;;6175115;23;20131;-56
2023/02/17 08:24:04;;;;;;;3.78;2.45;;;;;;;;;;6174726;23;20021;-56
2023/02/17 08:26:31;;;;;;;2.70;2.10;;;;;;;;;;6175783;23;20072;-55
2023/02/17 08:29:05;;;;;;;2.67;2.17;;;;;;;;;;6175421;23;20064;-58
2023/02/17 08:31:33;;;;;;;2.05;1.77;;;;;;;;;;6174453;23;20475;-83
2023/02/17 08:34:02;;;;;;;2.10;1.90;;;;;;;;;;6174283;23;20025;-51
2023/02/17 08:36:37;;;;;;;2.22;1.98;;;;;;;;;;6175310;23;20060;-51
2023/02/17 08:39:05;;;;;;;2.53;1.80;;;;;;;;;;6174232;23;20025;-49
2023/02/17 08:41:33;;;;;;;1.63;1.50;;;;;;;;;;6175270;23;20077;-49
2023/02/17 08:44:13;;;;;;;1.63;1.42;;;;;;;;;;6175768;23;20068;-50
2023/02/17 08:46:40;;;;;;;1.55;1.45;;;;;;;;;;6177752;23;20029;-61
2023/02/17 08:49:15;;;;;;;2.42;1.90;;;;;;;;;;6176877;23;20025;-61
2023/02/17 08:51:44;;;;;;;2.00;1.55;;;;;;;;;;6176993;23;20439;-61
2023/02/17 08:54:11;;;;;;;1.50;1.40;;;;;;;;;;6177566;23;20032;-61
2023/02/17 08:56:45;;;;;;;1.48;1.30;;;;;;;;;;6177970;23;20021;-61
2023/02/17 08:59:13;;;;;;;2.25;1.48;;;;;;;;;;6175394;23;20492;-74
2023/02/17 09:01:46;;;;;;;2.65;1.50;;;;;;;;;;6177405;23;20565;-72
2023/02/17 09:04:15;;;;;;;1.83;1.25;;;;;;;;;;6176994;23;20032;-73
2023/02/17 09:06:44;;;;;;;1.98;1.67;;;;;;;;;;6175961;23;20063;-74
2023/02/17 09:09:18;;;;;;;1.98;1.27;;;;;;;;;;6176484;23;20427;-74
2023/02/17 09:11:46;;;;;;;2.58;1.38;;;;;;;;;;6177767;23;20176;-73
2023/02/17 09:14:13;;;;;;;1.42;1.30;;;;;;;;;;6176251;23;20021;-73
2023/02/17 09:16:46;;;;;;;1.20;1.10;;;;;;;;;;6177870;23;20407;-61
2023/02/17 09:19:14;;;;;;;1.00;0.90;;;;;;;;;;6176636;23;20108;-61
2023/02/17 09:21:54;;;;;;;1.85;1.10;;;;;;;;;;6175628;23;20017;-61
2023/02/17 09:24:28;;;;;;;1.60;1.00;;;;;;;;;;6175630;23;20032;-61
2023/02/17 09:27:02;;;;;;;2.55;1.02;;;;;;;;;;6177160;23;20096;-76
2023/02/17 09:29:30;;;;;;;1.00;0.90;;;;;;;;;;6175706;23;20538;-52
2023/02/17 09:31:57;;;;;;;1.58;1.00;;;;;;;;;;6177735;23;20025;-50
2023/02/17 09:34:31;;;;;;;1.13;1.02;;;;;;;;;;6151483;23;20021;-51
2023/02/17 09:36:58;;;;;;;2.10;1.27;;;;;;;;;;6175515;23;20518;-50
2023/02/17 09:39:25;;;;;;;1.42;1.05;;;;;;;;;;6174853;23;20871;-49
2023/02/17 09:41:58;;;;;;;1.50;0.85;;;;;;;;;;6177911;23;20021;-51
2023/02/17 09:44:40;;;;;;;1.23;0.88;;;;;;;;;;6175578;23;20356;-61
2023/02/17 09:47:19;;;;;;;1.63;1.00;;;;;;;;;;6176399;23;20021;-61
2023/02/17 09:49:50;;;;;;;1.15;0.90;;;;;;;;;;6177020;23;20088;-61
2023/02/17 09:52:27;;;;;;;1.15;0.75;;;;;;;;;;6176818;23;20025;-61
2023/02/17 09:55:06;;;;;;;1.25;0.80;;;;;;;;;;6176056;23;20080;-56
2023/02/17 09:57:43;;;;;;;3.20;0.80;;;;;;;;;;6151643;23;20500;-80
2023/02/17 10:00:16;;;;;;;3.53;1.20;;;;;;;;;;6177206;23;20558;-79
2023/02/17 10:02:55;;;;;;;1.13;1.00;;;;;;;;;;6175983;23;20500;-81
2023/02/17 10:05:25;;;;;;;1.10;1.00;;;;;;;;;;6176017;23;20029;-79
2023/02/17 10:08:12;;;;;;;1.30;1.10;;;;;;;;;;6175540;23;20024;-80
2023/02/17 10:10:48;;;;;;;1.08;0.90;;;;;;;;;;6176207;23;20021;-80
2023/02/17 10:13:23;;;;;;;0.57;0.57;;;;;;;;;;6175644;23;20100;-81
2023/02/17 10:15:52;;;;;;;3.42;0.80;;;;;;;;;;6176894;23;20029;-86
2023/02/17 10:18:27;;;;;;;0.85;0.85;;;;;;;;;;6177833;23;20084;-83
2023/02/17 10:21:06;;;;;;;1.83;1.10;;;;;;;;;;6177067;23;20021;-84
2023/02/17 10:23:40;;;;;;;0.95;0.70;;;;;;;;;;6175403;23;20112;-65
2023/02/17 10:26:33;;;;;;;1.08;0.70;;;;;;;;;;6176321;23;20096;-80
2023/02/17 10:29:04;;;;;;;0.63;0.60;;;;;;;;;;6175636;23;20353;-81
2023/02/17 10:31:46;;;;;;;1.35;0.90;;;;;;;;;;6176612;23;20029;-80
2023/02/17 10:34:14;;;;;;;0.88;0.70;;;;;;;;;;6173419;23;20052;-81
2023/02/17 10:36:50;;;;;;;0.93;0.70;;;;;;;;;;6173717;23;20025;-81
2023/02/17 10:39:40;;;;;;;0.68;0.68;;;;;;;;;;6173919;23;20109;-80
2023/02/17 10:42:17;;;;;;;0.82;0.68;;;;;;;;;;6177363;23;20107;-65
2023/02/17 10:44:44;;;;;;;0.50;0.50;;;;;;;;;;6173980;23;20419;-63
2023/02/17 10:47:11;;;;;;;0.88;0.88;;;;;;;;;;6176308;23;20059;-64
2023/02/17 10:49:48;;;;;;;0.80;0.60;;;;;;;;;;6174617;23;20021;-64
2023/02/17 10:52:17;;;;;;;0.73;0.57;;;;;;;;;;6174444;23;20139;-63
2023/02/17 10:54:54;;;;;;;0.82;0.80;;;;;;;;;;6175004;23;20438;-58
2023/02/17 10:57:22;;;;;;;3.03;0.93;;;;;;;;;;6176155;23;20021;-58
2023/02/17 10:59:53;;;;;;;0.75;0.73;;;;;;;;;;6174685;23;20381;-58
2023/02/17 11:02:43;;;;;;;0.80;0.73;;;;;;;;;;6174695;23;20514;-59
2023/02/17 11:05:21;;;;;;;0.73;0.52;;;;;;;;;;6174618;23;20020;-60
2023/02/17 11:08:01;;;;;;;0.40;0.40;;;;;;;;;;6172472;23;20048;-60
2023/02/17 11:10:31;;;;;;;3.17;0.70;;;;;;;;;;6175398;23;20053;-62
2023/02/17 11:13:18;;;;;;;0.70;0.60;;;;;;;;;;6173172;23;20507;-62
2023/02/17 11:15:46;;;;;;;1.05;0.70;;;;;;;;;;6173768;23;20506;-64
2023/02/17 11:18:21;;;;;;;1.35;0.60;;;;;;;;;;6175718;23;20029;-64
2023/02/17 11:21:09;;;;;;;1.13;0.57;;;;;;;;;;6176044;23;20443;-62
2023/02/17 11:23:48;;;;;;;1.55;0.75;;;;;;;;;;6174216;23;20380;-60
2023/02/17 11:26:22;;;;;;;0.30;0.30;;;;;;;;;;6175530;23;20484;-61
2023/02/17 11:28:50;;;;;;;0.43;0.43;;;;;;;;;;6173499;23;20031;-61
2023/02/17 11:31:24;;;;;;;1.55;0.50;;;;;;;;;;6174993;23;20053;-61
2023/02/17 11:33:58;;;;;;;1.52;0.40;;;;;;;;;;6174687;23;20240;-61
2023/02/17 11:36:31;;;;;;;0.43;0.40;;;;;;;;;;6174918;23;20032;-61
2023/02/17 11:39:19;;;;;;;0.40;0.40;;;;;;;;;;6175483;23;20025;-83
2023/02/17 11:41:46;;;;;;;0.28;0.28;;;;;;;;;;6174603;23;20571;-86
2023/02/17 11:44:24;;;;;;;0.30;0.30;;;;;;;;;;6173827;23;20027;-84
2023/02/17 11:47:16;;;;;;;0.35;0.35;;;;;;;;;;6174689;23;20024;-87
2023/02/17 11:50:01;;;;;;;0.68;0.38;;;;;;;;;;6174480;23;20021;-80
2023/02/17 11:52:55;;;;;;;0.20;0.20;;;;;;;;;;6175265;23;20232;-82
2023/02/17 11:55:35;;;;;;;0.60;0.40;;;;;;;;;;6120200;23;20256;-84
2023/02/17 11:58:05;;;;;;;0.20;0.20;;;;;;;;;;6174960;23;20104;-83
2023/02/17 12:00:42;;;;;;;0.28;0.28;;;;;;;;;;6176385;23;20103;-82
2023/02/17 12:03:42;;;;;;;0.22;0.20;;;;;;;;;;6174679;23;20044;-82
2023/02/17 12:06:20;;;;;;;0.20;0.20;;;;;;;;;;6175941;23;20563;-58
2023/02/17 12:09:03;;;;;;;0.20;0.20;;;;;;;;;;6174535;23;20381;-57
2023/02/17 12:11:44;;;;;;;0.28;0.28;;;;;;;;;;6174413;23;20068;-58
2023/02/17 12:14:11;;;;;;;0.20;0.20;;;;;;;;;;6174207;23;20083;-57
2023/02/17 12:16:59;;;;;;;0.98;0.45;;;;;;;;;;6174609;23;20285;-64
2023/02/17 12:19:34;;;;;;;0.20;0.20;;;;;;;;;;6176027;23;20021;-85
2023/02/17 12:22:23;;;;;;;0.88;0.30;;;;;;;;;;6175579;23;20510;-87
2023/02/17 12:25:22;;;;;;;0.10;0.10;;;;;;;;;;6175796;23;20131;-84
2023/02/17 12:28:15;;;;;;;0.30;0.30;;;;;;;;;;6176238;23;20084;-84
2023/02/17 12:30:50;;;;;;;1.95;0.47;;;;;;;;;;6176676;23;20027;-84
2023/02/17 12:33:43;;;;;;;0.15;0.15;;;;;;;;;;6178006;23;20036;-87
2023/02/17 12:36:12;;;;;;;0.63;0.17;;;;;;;;;;6151042;23;20025;-61
2023/02/17 12:38:49;;;;;;;0.80;0.20;;;;;;;;;;6176122;23;20087;-61
2023/02/17 12:41:20;;;;;;;0.20;0.20;;;;;;;;;;6177966;23;20021;-61
2023/02/17 12:43:57;;;;;;;0.20;0.20;;;;;;;;;;6176024;23;20492;-60
2023/02/17 12:46:28;;;;;;;1.10;0.40;;;;;;;;;;6177480;23;20188;-64
2023/02/17 12:49:19;;;;;;;0.40;0.30;;;;;;;;;;6176135;23;20092;-59
2023/02/17 12:51:58;;;;;;;3.50;1.27;;;;;;;;;;6177079;23;20039;-58
2023/02/17 12:54:35;;;;;;;1.33;0.50;;;;;;;;;;6175746;23;20021;-60
2023/02/17 12:57:05;;;;;;;3.40;1.05;;;;;;;;;;6176195;23;20025;-60
2023/02/17 12:59:33;;;;;;;3.90;0.75;;;;;;;;;;6176693;23;20387;-59
2023/02/17 13:02:16;;;;;;;1.73;1.00;;;;;;;;;;6176349;23;20116;-60
2023/02/17 13:04:44;;;;;;;4.32;0.70;;;;;;;;;;6176268;23;20024;-58
2023/02/17 13:07:45;;;;;;;3.35;0.90;;;;;;;;;;6176527;23;20383;-57
2023/02/17 13:10:30;;;;;;;2.33;1.15;;;;;;;;;;6142739;23;20670;-56
2023/02/17 13:13:04;;;;;;;2.58;1.00;;;;;;;;;;6175394;23;20104;-57
2023/02/17 13:15:37;;;;;;;5.85;1.10;;;;;;;;;;6176162;23;20108;-80
2023/02/17 13:18:24;;;;;;;5.28;1.25;;;;;;;;;;6176277;23;20032;-62
2023/02/17 13:21:16;;;;;;;6.35;1.48;;;;;;;;;;6176282;23;20113;-62
2023/02/17 13:23:51;;;;;;;14.95;1.90;;;;;;;;;;6173652;23;20071;-63
2023/02/17 13:26:28;;;;;;;17.13;3.13;;;;;;;;;;6174885;23;20024;-62
2023/02/17 13:29:14;;;;;;;23.15;2.90;;;;;;;;;;6175016;23;20027;-63
2023/02/17 13:31:58;;;;;;;36.90;4.43;;;;;;;;;;6175671;23;20043;-60
2023/02/17 13:34:27;;;;;;;29.70;4.95;;;;;;;;;;6175309;23;20052;-60
2023/02/17 13:37:04;;;;;;;39.95;5.13;;;;;;;;;;6176777;23;20263;-61
2023/02/17 13:39:33;;;;;;;41.65;5.65;;;;;;;;;;6177086;23;20060;-61
2023/02/17 13:42:01;;;;;;;45.88;6.10;;;;;;;;;;6175613;23;20082;-74
2023/02/17 13:44:40;;;;;;;60.63;6.90;;;;;;;;;;6175201;23;20107;-61
2023/02/17 13:47:10;;;;;;;50.05;6.88;;;;;;;;;;6176991;23;20087;-64
2023/02/17 13:49:51;;;;;;;57.95;6.82;;;;;;;;;;6174769;23;20500;-64
2023/02/17 13:52:29;;;;;;;51.28;6.20;;;;;;;;;;6176461;23;20060;-64
2023/02/17 13:55:04;;;;;;;69.63;9.18;;;;;;;;;;6172223;23;20033;-64
2023/02/17 13:57:34;;;;;;;45.10;6.22;;;;;;;;;;6176081;23;20025;-64
2023/02/17 14:00:19;;;;;;;64.25;7.90;;;;;;;;;;6177045;23;20031;-61
2023/02/17 14:02:50;;;;;;;66.57;7.57;;;;;;;;;;6174405;23;20571;-61
2023/02/17 14:05:36;;;;;;;69.53;9.90;;;;;;;;;;6174656;23;20029;-61
2023/02/17 14:08:05;;;;;;;69.30;10.85;;;;;;;;;;6176209;23;20571;-61
2023/02/17 14:10:39;;;;;;;70.50;9.85;;;;;;;;;;6174235;23;20552;-58
2023/02/17 14:13:08;;;;;;;76.40;9.13;;;;;;;;;;6177112;23;20356;-58
2023/02/17 14:15:35;;;;;;;86.53;9.35;;;;;;;;;;6174747;23;20055;-59
2023/02/17 14:18:13;;;;;;;85.03;10.35;;;;;;;;;;6176418;23;20100;-59
2023/02/17 14:20:40;;;;;;;71.32;10.38;;;;;;;;;;6174998;23;20100;-59
2023/02/17 14:23:27;;;;;;;79.88;9.20;;;;;;;;;;6175684;23;20039;-58
2023/02/17 14:26:09;;;;;;;69.70;9.38;;;;;;;;;;6172838;23;20052;-59
2023/02/17 14:28:51;;;;;;;51.83;6.88;;;;;;;;;;6176554;23;20097;-63
2023/02/17 14:31:20;;;;;;;70.40;9.18;;;;;;;;;;6176473;23;20361;-63
2023/02/17 14:33:55;;;;;;;65.72;10.43;;;;;;;;;;6176114;23;20060;-63
2023/02/17 14:36:30;;;;;;;73.20;11.25;;;;;;;;;;6172802;23;20029;-63
2023/02/17 14:39:06;;;;;;;64.03;8.20;;;;;;;;;;6199371;23;20086;-57
2023/02/17 14:41:33;;;;;;;53.28;8.35;;;;;;;;;;6233366;23;20062;-63
2023/02/17 14:44:08;;;;;;;65.03;9.23;;;;;;;;;;6204565;23;20051;-63
2023/02/17 14:46:35;;;;;;;60.38;7.40;;;;;;;;;;6234210;23;20050;-63
2023/02/17 14:49:09;;;;;;;90.68;10.57;;;;;;;;;;6235838;23;20113;-63
2023/02/17 14:51:37;;;;;;;70.78;9.88;;;;;;;;;;6230893;23;20035;-63
2023/02/17 14:54:13;;;;;;;68.63;8.25;;;;;;;;;;6234869;23;20131;-63
2023/02/17 14:56:46;;;;;;;70.45;9.13;;;;;;;;;;6234779;23;20558;-63
2023/02/17 14:59:13;;;;;;;62.30;8.95;;;;;;;;;;6234390;23;20479;-74
2023/02/17 15:01:47;;;;;;;70.93;9.25;;;;;;;;;;6234037;23;20382;-59
2023/02/17 15:04:15;;;;;;;67.57;8.55;;;;;;;;;;6235569;23;20024;-58
2023/02/17 15:06:50;;;;;;;77.55;9.73;;;;;;;;;;6233643;23;20553;-57
2023/02/17 15:09:20;;;;;;;64.72;9.68;;;;;;;;;;6234706;23;20030;-58